sensor_id;sensor_type;location;lat;lon;timestamp;P1;durP1;ratioP1;P2;durP2;ratioP2
25758;SDS011;13604;52.496;13.456;2023-03-31T00:02:24;3.88;;;2.45;;
25758;SDS011;13604;52.496;13.456;2023-03-31T00:04:49;7.68;;;2.08;;
25758;SDS011;13604;52.496;13.456;2023-03-31T00:07:19;3.80;;;2.10;;
25758;SDS011;13604;52.496;13.456;2023-03-31T00:09:47;8.48;;;2.67;;
25758;SDS011;13604;52.496;13.456;2023-03-31T00:12:13;10.85;;;2.40;;
25758;SDS011;13604;52.496;13.456;2023-03-31T00:14:41;9.27;;;2.63;;
25758;SDS011;13604;52.496;13.456;2023-03-31T00:17:07;9.10;;;2.33;;
25758;SDS011;13604;52.496;13.456;2023-03-31T00:19:33;11.15;;;2.88;;
25758;SDS011;13604;52.496;13.456;2023-03-31T00:21:59;10.02;;;2.72;;
25758;SDS011;13604;52.496;13.456;2023-03-31T00:24:29;7.20;;;2.22;;
25758;SDS011;13604;52.496;13.456;2023-03-31T00:27:02;7.28;;;2.10;;
25758;SDS011;13604;52.496;13.456;2023-03-31T00:29:28;4.28;;;2.30;;
25758;SDS011;13604;52.496;13.456;2023-03-31T00:31:54;8.55;;;2.20;;
25758;SDS011;13604;52.496;13.456;2023-03-31T00:34:19;6.35;;;2.15;;
25758;SDS011;13604;52.496;13.456;2023-03-31T00:36:45;9.30;;;2.33;;
25758;SDS011;13604;52.496;13.456;2023-03-31T00:39:14;5.82;;;2.35;;
25758;SDS011;13604;52.496;13.456;2023-03-31T00:41:42;7.97;;;2.45;;
25758;SDS011;13604;52.496;13.456;2023-03-31T00:44:18;7.57;;;2.30;;
25758;SDS011;13604;52.496;13.456;2023-03-31T00:46:52;6.13;;;1.98;;
25758;SDS011;13604;52.496;13.456;2023-03-31T00:49:28;8.98;;;2.85;;
25758;SDS011;13604;52.496;13.456;2023-03-31T00:52:01;8.63;;;2.60;;
25758;SDS011;13604;52.496;13.456;2023-03-31T00:54:31;9.23;;;2.92;;
25758;SDS011;13604;52.496;13.456;2023-03-31T00:56:58;6.80;;;2.25;;
25758;SDS011;13604;52.496;13.456;2023-03-31T00:59:27;8.65;;;2.65;;
25758;SDS011;13604;52.496;13.456;2023-03-31T01:01:55;9.48;;;2.20;;
25758;SDS011;13604;52.496;13.456;2023-03-31T01:04:26;5.32;;;2.20;;
25758;SDS011;13604;52.496;13.456;2023-03-31T01:06:55;6.50;;;2.13;;
25758;SDS011;13604;52.496;13.456;2023-03-31T01:09:25;6.68;;;1.88;;
25758;SDS011;13604;52.496;13.456;2023-03-31T01:11:54;9.88;;;2.25;;
25758;SDS011;13604;52.496;13.456;2023-03-31T01:14:20;10.32;;;2.00;;
25758;SDS011;13604;52.496;13.456;2023-03-31T01:16:46;5.82;;;2.08;;
25758;SDS011;13604;52.496;13.456;2023-03-31T01:19:25;6.53;;;1.90;;
25758;SDS011;13604;52.496;13.456;2023-03-31T01:24:52;3.42;;;1.58;;
25758;SDS011;13604;52.496;13.456;2023-03-31T01:27:58;6.15;;;2.05;;
25758;SDS011;13604;52.496;13.456;2023-03-31T01:39:04;6.75;;;1.85;;
25758;SDS011;13604;52.496;13.456;2023-03-31T01:41:47;5.28;;;2.08;;
25758;SDS011;13604;52.496;13.456;2023-03-31T01:44:27;9.48;;;1.90;;
25758;SDS011;13604;52.496;13.456;2023-03-31T01:47:10;9.35;;;2.08;;
25758;SDS011;13604;52.496;13.456;2023-03-31T01:52:52;9.45;;;1.80;;
25758;SDS011;13604;52.496;13.456;2023-03-31T01:58:05;7.28;;;2.05;;
25758;SDS011;13604;52.496;13.456;2023-03-31T02:00:37;10.65;;;1.80;;
25758;SDS011;13604;52.496;13.456;2023-03-31T02:03:25;4.72;;;1.65;;
25758;SDS011;13604;52.496;13.456;2023-03-31T02:05:56;8.82;;;2.65;;
25758;SDS011;13604;52.496;13.456;2023-03-31T02:08:25;3.53;;;1.23;;
25758;SDS011;13604;52.496;13.456;2023-03-31T02:11:08;7.55;;;1.80;;
25758;SDS011;13604;52.496;13.456;2023-03-31T02:13:34;8.20;;;1.90;;
25758;SDS011;13604;52.496;13.456;2023-03-31T02:16:04;6.07;;;1.63;;
25758;SDS011;13604;52.496;13.456;2023-03-31T02:18:33;4.65;;;1.80;;
25758;SDS011;13604;52.496;13.456;2023-03-31T02:21:02;3.92;;;1.30;;
25758;SDS011;13604;52.496;13.456;2023-03-31T02:23:30;3.90;;;1.40;;
25758;SDS011;13604;52.496;13.456;2023-03-31T02:26:04;4.68;;;1.67;;
25758;SDS011;13604;52.496;13.456;2023-03-31T02:28:34;4.15;;;1.70;;
25758;SDS011;13604;52.496;13.456;2023-03-31T02:31:04;8.27;;;1.63;;
25758;SDS011;13604;52.496;13.456;2023-03-31T02:33:30;6.05;;;1.60;;
25758;SDS011;13604;52.496;13.456;2023-03-31T02:35:57;4.18;;;1.63;;
25758;SDS011;13604;52.496;13.456;2023-03-31T02:38:23;7.13;;;1.90;;
25758;SDS011;13604;52.496;13.456;2023-03-31T02:40:48;5.07;;;1.67;;
25758;SDS011;13604;52.496;13.456;2023-03-31T02:43:13;6.18;;;1.65;;
25758;SDS011;13604;52.496;13.456;2023-03-31T02:45:43;5.75;;;1.50;;
25758;SDS011;13604;52.496;13.456;2023-03-31T02:59:48;3.38;;;1.45;;
25758;SDS011;13604;52.496;13.456;2023-03-31T03:02:47;6.85;;;1.60;;
25758;SDS011;13604;52.496;13.456;2023-03-31T03:08:24;4.72;;;1.73;;
25758;SDS011;13604;52.496;13.456;2023-03-31T03:10:56;4.15;;;1.65;;
25758;SDS011;13604;52.496;13.456;2023-03-31T03:16:23;4.28;;;1.83;;
25758;SDS011;13604;52.496;13.456;2023-03-31T03:18:56;8.60;;;1.67;;
25758;SDS011;13604;52.496;13.456;2023-03-31T03:21:26;6.38;;;1.58;;
25758;SDS011;13604;52.496;13.456;2023-03-31T03:23:51;4.72;;;1.70;;
25758;SDS011;13604;52.496;13.456;2023-03-31T03:26:17;8.10;;;1.92;;
25758;SDS011;13604;52.496;13.456;2023-03-31T03:28:48;6.50;;;1.45;;
25758;SDS011;13604;52.496;13.456;2023-03-31T03:31:16;7.03;;;1.73;;
25758;SDS011;13604;52.496;13.456;2023-03-31T03:33:41;4.93;;;1.52;;
25758;SDS011;13604;52.496;13.456;2023-03-31T03:36:07;7.70;;;2.00;;
25758;SDS011;13604;52.496;13.456;2023-03-31T03:38:32;5.82;;;1.38;;
25758;SDS011;13604;52.496;13.456;2023-03-31T03:40:58;8.10;;;1.40;;
25758;SDS011;13604;52.496;13.456;2023-03-31T03:43:23;4.60;;;1.52;;
25758;SDS011;13604;52.496;13.456;2023-03-31T03:45:50;5.40;;;1.85;;
25758;SDS011;13604;52.496;13.456;2023-03-31T03:48:15;6.32;;;1.77;;
25758;SDS011;13604;52.496;13.456;2023-03-31T03:50:41;6.20;;;2.03;;
25758;SDS011;13604;52.496;13.456;2023-03-31T03:53:07;6.88;;;1.60;;
25758;SDS011;13604;52.496;13.456;2023-03-31T03:55:32;8.48;;;1.83;;
25758;SDS011;13604;52.496;13.456;2023-03-31T03:57:58;4.95;;;1.77;;
25758;SDS011;13604;52.496;13.456;2023-03-31T04:00:23;4.78;;;1.67;;
25758;SDS011;13604;52.496;13.456;2023-03-31T04:02:48;7.88;;;1.70;;
25758;SDS011;13604;52.496;13.456;2023-03-31T04:05:13;6.97;;;1.85;;
25758;SDS011;13604;52.496;13.456;2023-03-31T04:07:39;5.53;;;1.85;;
25758;SDS011;13604;52.496;13.456;2023-03-31T04:10:04;4.75;;;1.58;;
25758;SDS011;13604;52.496;13.456;2023-03-31T04:12:32;8.75;;;1.90;;
25758;SDS011;13604;52.496;13.456;2023-03-31T04:14:58;6.72;;;1.92;;
25758;SDS011;13604;52.496;13.456;2023-03-31T04:17:24;6.43;;;1.92;;
25758;SDS011;13604;52.496;13.456;2023-03-31T04:19:56;6.07;;;1.92;;
25758;SDS011;13604;52.496;13.456;2023-03-31T04:22:26;8.32;;;1.98;;
25758;SDS011;13604;52.496;13.456;2023-03-31T04:25:00;8.93;;;1.95;;
25758;SDS011;13604;52.496;13.456;2023-03-31T04:27:26;7.20;;;1.70;;
25758;SDS011;13604;52.496;13.456;2023-03-31T04:29:52;5.88;;;1.85;;
25758;SDS011;13604;52.496;13.456;2023-03-31T04:32:20;8.02;;;2.00;;
25758;SDS011;13604;52.496;13.456;2023-03-31T04:34:47;8.02;;;1.77;;
25758;SDS011;13604;52.496;13.456;2023-03-31T04:37:14;7.40;;;2.13;;
25758;SDS011;13604;52.496;13.456;2023-03-31T04:39:40;5.90;;;2.33;;
25758;SDS011;13604;52.496;13.456;2023-03-31T04:42:05;11.88;;;2.05;;
25758;SDS011;13604;52.496;13.456;2023-03-31T04:44:31;10.48;;;2.40;;
25758;SDS011;13604;52.496;13.456;2023-03-31T04:46:56;8.00;;;2.20;;
25758;SDS011;13604;52.496;13.456;2023-03-31T04:49:22;6.32;;;2.03;;
25758;SDS011;13604;52.496;13.456;2023-03-31T04:51:48;6.50;;;2.05;;
25758;SDS011;13604;52.496;13.456;2023-03-31T04:54:13;8.68;;;2.50;;
25758;SDS011;13604;52.496;13.456;2023-03-31T04:56:38;8.38;;;2.00;;
25758;SDS011;13604;52.496;13.456;2023-03-31T04:59:04;6.25;;;2.05;;
25758;SDS011;13604;52.496;13.456;2023-03-31T05:01:29;9.75;;;2.45;;
25758;SDS011;13604;52.496;13.456;2023-03-31T05:04:00;6.53;;;1.90;;
25758;SDS011;13604;52.496;13.456;2023-03-31T05:06:26;8.30;;;2.25;;
25758;SDS011;13604;52.496;13.456;2023-03-31T05:08:51;4.82;;;1.90;;
25758;SDS011;13604;52.496;13.456;2023-03-31T05:11:17;10.18;;;2.42;;
25758;SDS011;13604;52.496;13.456;2023-03-31T05:13:42;9.75;;;2.08;;
25758;SDS011;13604;52.496;13.456;2023-03-31T05:16:08;5.07;;;2.00;;
25758;SDS011;13604;52.496;13.456;2023-03-31T05:18:36;8.95;;;2.17;;
25758;SDS011;13604;52.496;13.456;2023-03-31T05:21:34;4.63;;;2.00;;
25758;SDS011;13604;52.496;13.456;2023-03-31T05:23:54;9.38;;;1.95;;
25758;SDS011;13604;52.496;13.456;2023-03-31T05:26:20;11.05;;;2.83;;
25758;SDS011;13604;52.496;13.456;2023-03-31T05:28:48;8.80;;;1.83;;
25758;SDS011;13604;52.496;13.456;2023-03-31T05:31:14;5.95;;;2.22;;
25758;SDS011;13604;52.496;13.456;2023-03-31T05:33:39;11.30;;;2.40;;
25758;SDS011;13604;52.496;13.456;2023-03-31T05:36:09;9.50;;;2.65;;
25758;SDS011;13604;52.496;13.456;2023-03-31T05:38:35;11.63;;;2.70;;
25758;SDS011;13604;52.496;13.456;2023-03-31T05:41:01;7.95;;;2.08;;
25758;SDS011;13604;52.496;13.456;2023-03-31T05:43:26;11.20;;;2.60;;
25758;SDS011;13604;52.496;13.456;2023-03-31T05:45:52;8.13;;;2.20;;
25758;SDS011;13604;52.496;13.456;2023-03-31T05:48:17;9.27;;;2.58;;
25758;SDS011;13604;52.496;13.456;2023-03-31T05:50:42;9.88;;;2.15;;
25758;SDS011;13604;52.496;13.456;2023-03-31T05:53:08;11.65;;;2.83;;
25758;SDS011;13604;52.496;13.456;2023-03-31T05:55:38;12.23;;;2.55;;
25758;SDS011;13604;52.496;13.456;2023-03-31T05:58:03;10.27;;;2.47;;
25758;SDS011;13604;52.496;13.456;2023-03-31T06:00:30;8.90;;;2.63;;
25758;SDS011;13604;52.496;13.456;2023-03-31T06:02:56;7.38;;;2.50;;
25758;SDS011;13604;52.496;13.456;2023-03-31T06:05:21;8.35;;;3.17;;
25758;SDS011;13604;52.496;13.456;2023-03-31T06:07:50;11.55;;;3.03;;
25758;SDS011;13604;52.496;13.456;2023-03-31T06:10:15;5.93;;;2.20;;
25758;SDS011;13604;52.496;13.456;2023-03-31T06:12:40;11.55;;;2.67;;
25758;SDS011;13604;52.496;13.456;2023-03-31T06:15:06;10.82;;;2.40;;
25758;SDS011;13604;52.496;13.456;2023-03-31T06:17:32;10.35;;;3.08;;
25758;SDS011;13604;52.496;13.456;2023-03-31T06:19:57;4.35;;;2.13;;
25758;SDS011;13604;52.496;13.456;2023-03-31T06:22:22;6.53;;;2.35;;
25758;SDS011;13604;52.496;13.456;2023-03-31T06:24:47;8.32;;;2.28;;
25758;SDS011;13604;52.496;13.456;2023-03-31T06:27:13;10.75;;;2.33;;
25758;SDS011;13604;52.496;13.456;2023-03-31T06:29:38;9.15;;;2.35;;
25758;SDS011;13604;52.496;13.456;2023-03-31T06:32:03;8.57;;;2.35;;
25758;SDS011;13604;52.496;13.456;2023-03-31T06:34:29;11.27;;;2.95;;
25758;SDS011;13604;52.496;13.456;2023-03-31T06:36:54;7.43;;;2.58;;
25758;SDS011;13604;52.496;13.456;2023-03-31T06:39:19;7.65;;;2.88;;
25758;SDS011;13604;52.496;13.456;2023-03-31T06:41:45;15.82;;;3.00;;
25758;SDS011;13604;52.496;13.456;2023-03-31T06:44:10;12.52;;;3.03;;
25758;SDS011;13604;52.496;13.456;2023-03-31T06:46:35;12.38;;;2.95;;
25758;SDS011;13604;52.496;13.456;2023-03-31T06:49:01;7.03;;;2.65;;
25758;SDS011;13604;52.496;13.456;2023-03-31T06:51:26;8.65;;;2.83;;
25758;SDS011;13604;52.496;13.456;2023-03-31T06:53:51;7.07;;;2.80;;
25758;SDS011;13604;52.496;13.456;2023-03-31T06:56:17;10.27;;;2.75;;
25758;SDS011;13604;52.496;13.456;2023-03-31T06:58:42;10.23;;;2.90;;
25758;SDS011;13604;52.496;13.456;2023-03-31T07:01:07;9.77;;;2.65;;
25758;SDS011;13604;52.496;13.456;2023-03-31T07:03:34;13.45;;;3.00;;
25758;SDS011;13604;52.496;13.456;2023-03-31T07:06:00;7.45;;;2.60;;
25758;SDS011;13604;52.496;13.456;2023-03-31T07:08:25;8.98;;;2.83;;
25758;SDS011;13604;52.496;13.456;2023-03-31T07:10:55;7.32;;;2.42;;
25758;SDS011;13604;52.496;13.456;2023-03-31T07:13:22;9.85;;;2.33;;
25758;SDS011;13604;52.496;13.456;2023-03-31T07:15:48;8.00;;;2.78;;
25758;SDS011;13604;52.496;13.456;2023-03-31T07:18:14;8.55;;;2.50;;
25758;SDS011;13604;52.496;13.456;2023-03-31T07:20:40;6.18;;;2.50;;
25758;SDS011;13604;52.496;13.456;2023-03-31T07:23:07;7.55;;;2.53;;
25758;SDS011;13604;52.496;13.456;2023-03-31T07:25:33;11.13;;;2.70;;
25758;SDS011;13604;52.496;13.456;2023-03-31T07:27:59;6.38;;;2.20;;
25758;SDS011;13604;52.496;13.456;2023-03-31T07:30:25;7.25;;;2.60;;
25758;SDS011;13604;52.496;13.456;2023-03-31T07:32:50;9.52;;;3.40;;
25758;SDS011;13604;52.496;13.456;2023-03-31T07:35:16;11.90;;;3.20;;
25758;SDS011;13604;52.496;13.456;2023-03-31T07:37:44;9.98;;;2.40;;
25758;SDS011;13604;52.496;13.456;2023-03-31T07:40:12;10.27;;;2.42;;
25758;SDS011;13604;52.496;13.456;2023-03-31T07:42:39;8.25;;;2.97;;
25758;SDS011;13604;52.496;13.456;2023-03-31T07:45:06;10.35;;;2.58;;
25758;SDS011;13604;52.496;13.456;2023-03-31T07:47:32;8.60;;;2.33;;
25758;SDS011;13604;52.496;13.456;2023-03-31T07:49:57;12.90;;;2.60;;
25758;SDS011;13604;52.496;13.456;2023-03-31T07:52:24;8.77;;;1.95;;
25758;SDS011;13604;52.496;13.456;2023-03-31T07:54:50;9.00;;;2.20;;
25758;SDS011;13604;52.496;13.456;2023-03-31T07:57:15;7.65;;;2.58;;
25758;SDS011;13604;52.496;13.456;2023-03-31T07:59:44;6.53;;;2.13;;
25758;SDS011;13604;52.496;13.456;2023-03-31T08:02:14;8.07;;;2.30;;
25758;SDS011;13604;52.496;13.456;2023-03-31T08:04:40;6.90;;;1.92;;
25758;SDS011;13604;52.496;13.456;2023-03-31T08:07:09;7.03;;;1.98;;
25758;SDS011;13604;52.496;13.456;2023-03-31T08:09:35;4.43;;;2.25;;
25758;SDS011;13604;52.496;13.456;2023-03-31T08:12:01;10.70;;;2.40;;
25758;SDS011;13604;52.496;13.456;2023-03-31T08:14:27;6.85;;;2.30;;
25758;SDS011;13604;52.496;13.456;2023-03-31T08:16:52;10.55;;;2.17;;
25758;SDS011;13604;52.496;13.456;2023-03-31T08:19:19;9.55;;;2.03;;
25758;SDS011;13604;52.496;13.456;2023-03-31T08:21:46;5.57;;;2.20;;
25758;SDS011;13604;52.496;13.456;2023-03-31T08:24:11;8.85;;;1.77;;
25758;SDS011;13604;52.496;13.456;2023-03-31T08:26:36;9.68;;;1.80;;
25758;SDS011;13604;52.496;13.456;2023-03-31T08:29:02;6.43;;;2.20;;
25758;SDS011;13604;52.496;13.456;2023-03-31T08:31:28;5.70;;;1.90;;
25758;SDS011;13604;52.496;13.456;2023-03-31T08:33:54;9.18;;;2.03;;
25758;SDS011;13604;52.496;13.456;2023-03-31T08:36:20;8.77;;;2.22;;
25758;SDS011;13604;52.496;13.456;2023-03-31T08:38:46;9.40;;;2.13;;
25758;SDS011;13604;52.496;13.456;2023-03-31T08:41:19;6.35;;;2.13;;
25758;SDS011;13604;52.496;13.456;2023-03-31T08:44:10;6.20;;;1.67;;
25758;SDS011;13604;52.496;13.456;2023-03-31T08:46:40;7.93;;;1.77;;
25758;SDS011;13604;52.496;13.456;2023-03-31T08:49:08;4.10;;;1.42;;
25758;SDS011;13604;52.496;13.456;2023-03-31T08:51:41;8.07;;;1.80;;
25758;SDS011;13604;52.496;13.456;2023-03-31T08:54:30;7.30;;;2.22;;
25758;SDS011;13604;52.496;13.456;2023-03-31T08:56:57;9.57;;;2.10;;
25758;SDS011;13604;52.496;13.456;2023-03-31T08:59:30;7.72;;;1.70;;
25758;SDS011;13604;52.496;13.456;2023-03-31T09:02:09;7.35;;;1.75;;
25758;SDS011;13604;52.496;13.456;2023-03-31T09:07:41;9.48;;;2.08;;
25758;SDS011;13604;52.496;13.456;2023-03-31T09:15:53;9.05;;;1.70;;
25758;SDS011;13604;52.496;13.456;2023-03-31T09:18:27;5.13;;;1.83;;
25758;SDS011;13604;52.496;13.456;2023-03-31T09:21:15;7.75;;;2.15;;
25758;SDS011;13604;52.496;13.456;2023-03-31T09:23:55;6.68;;;1.90;;
25758;SDS011;13604;52.496;13.456;2023-03-31T09:26:46;8.57;;;1.90;;
25758;SDS011;13604;52.496;13.456;2023-03-31T09:29:15;9.88;;;1.85;;
25758;SDS011;13604;52.496;13.456;2023-03-31T09:31:45;10.52;;;2.30;;
25758;SDS011;13604;52.496;13.456;2023-03-31T09:34:15;8.90;;;1.90;;
25758;SDS011;13604;52.496;13.456;2023-03-31T09:36:46;12.45;;;2.58;;
25758;SDS011;13604;52.496;13.456;2023-03-31T09:39:12;7.03;;;1.70;;
25758;SDS011;13604;52.496;13.456;2023-03-31T09:41:46;5.30;;;1.80;;
25758;SDS011;13604;52.496;13.456;2023-03-31T09:44:35;8.10;;;1.80;;
25758;SDS011;13604;52.496;13.456;2023-03-31T09:47:01;9.57;;;1.90;;
25758;SDS011;13604;52.496;13.456;2023-03-31T09:49:31;6.70;;;1.63;;
25758;SDS011;13604;52.496;13.456;2023-03-31T09:52:04;8.38;;;1.67;;
25758;SDS011;13604;52.496;13.456;2023-03-31T09:54:37;8.10;;;2.20;;
25758;SDS011;13604;52.496;13.456;2023-03-31T09:57:23;5.72;;;1.63;;
25758;SDS011;13604;52.496;13.456;2023-03-31T09:59:51;7.60;;;1.80;;
25758;SDS011;13604;52.496;13.456;2023-03-31T10:02:20;7.90;;;1.92;;
25758;SDS011;13604;52.496;13.456;2023-03-31T10:04:53;8.82;;;2.60;;
25758;SDS011;13604;52.496;13.456;2023-03-31T10:07:22;7.13;;;2.03;;
25758;SDS011;13604;52.496;13.456;2023-03-31T10:09:48;5.88;;;1.77;;
25758;SDS011;13604;52.496;13.456;2023-03-31T10:12:16;7.85;;;2.03;;
25758;SDS011;13604;52.496;13.456;2023-03-31T10:14:48;9.85;;;1.80;;
25758;SDS011;13604;52.496;13.456;2023-03-31T10:17:17;6.78;;;1.58;;
25758;SDS011;13604;52.496;13.456;2023-03-31T10:19:47;6.10;;;1.70;;
25758;SDS011;13604;52.496;13.456;2023-03-31T10:22:37;8.70;;;2.33;;
25758;SDS011;13604;52.496;13.456;2023-03-31T10:25:21;4.57;;;2.10;;
25758;SDS011;13604;52.496;13.456;2023-03-31T10:27:51;8.80;;;2.53;;
25758;SDS011;13604;52.496;13.456;2023-03-31T10:30:23;4.80;;;2.08;;
25758;SDS011;13604;52.496;13.456;2023-03-31T10:32:53;9.93;;;2.15;;
25758;SDS011;13604;52.496;13.456;2023-03-31T10:35:25;3.25;;;2.25;;
25758;SDS011;13604;52.496;13.456;2023-03-31T10:37:57;8.45;;;3.05;;
25758;SDS011;13604;52.496;13.456;2023-03-31T10:40:27;4.70;;;2.92;;
25758;SDS011;13604;52.496;13.456;2023-03-31T10:43:13;8.68;;;3.13;;
25758;SDS011;13604;52.496;13.456;2023-03-31T10:45:48;6.35;;;3.30;;
25758;SDS011;13604;52.496;13.456;2023-03-31T10:48:16;4.68;;;2.30;;
25758;SDS011;13604;52.496;13.456;2023-03-31T10:50:43;5.53;;;2.42;;
25758;SDS011;13604;52.496;13.456;2023-03-31T10:53:10;4.85;;;2.40;;
25758;SDS011;13604;52.496;13.456;2023-03-31T10:55:38;15.05;;;3.92;;
25758;SDS011;13604;52.496;13.456;2023-03-31T11:04:00;5.38;;;2.45;;
25758;SDS011;13604;52.496;13.456;2023-03-31T11:06:53;4.63;;;2.20;;
25758;SDS011;13604;52.496;13.456;2023-03-31T11:09:31;8.82;;;2.83;;
25758;SDS011;13604;52.496;13.456;2023-03-31T11:12:11;6.40;;;2.45;;
25758;SDS011;13604;52.496;13.456;2023-03-31T11:15:04;6.10;;;2.30;;
25758;SDS011;13604;52.496;13.456;2023-03-31T11:20:33;4.53;;;1.88;;
25758;SDS011;13604;52.496;13.456;2023-03-31T11:23:33;2.83;;;1.20;;
25758;SDS011;13604;52.496;13.456;2023-03-31T11:29:18;5.22;;;1.65;;
25758;SDS011;13604;52.496;13.456;2023-03-31T11:32:06;3.55;;;1.90;;
25758;SDS011;13604;52.496;13.456;2023-03-31T11:34:53;6.95;;;1.85;;
25758;SDS011;13604;52.496;13.456;2023-03-31T11:43:12;5.55;;;2.20;;
25758;SDS011;13604;52.496;13.456;2023-03-31T11:45:48;7.72;;;1.92;;
25758;SDS011;13604;52.496;13.456;2023-03-31T11:48:51;3.88;;;1.65;;
25758;SDS011;13604;52.496;13.456;2023-03-31T11:51:21;3.40;;;1.30;;
25758;SDS011;13604;52.496;13.456;2023-03-31T11:53:51;5.88;;;2.10;;
25758;SDS011;13604;52.496;13.456;2023-03-31T11:56:19;6.55;;;2.00;;
25758;SDS011;13604;52.496;13.456;2023-03-31T11:58:53;5.00;;;1.55;;
25758;SDS011;13604;52.496;13.456;2023-03-31T12:01:32;5.13;;;2.15;;
25758;SDS011;13604;52.496;13.456;2023-03-31T12:04:14;7.68;;;2.00;;
25758;SDS011;13604;52.496;13.456;2023-03-31T12:10:21;9.63;;;2.35;;
25758;SDS011;13604;52.496;13.456;2023-03-31T12:12:58;9.85;;;2.80;;
25758;SDS011;13604;52.496;13.456;2023-03-31T12:15:32;4.68;;;2.10;;
25758;SDS011;13604;52.496;13.456;2023-03-31T12:18:09;4.53;;;2.15;;
25758;SDS011;13604;52.496;13.456;2023-03-31T12:20:40;13.57;;;2.22;;
25758;SDS011;13604;52.496;13.456;2023-03-31T12:23:11;9.15;;;2.70;;
25758;SDS011;13604;52.496;13.456;2023-03-31T12:25:44;6.15;;;2.42;;
25758;SDS011;13604;52.496;13.456;2023-03-31T12:28:23;9.35;;;2.63;;
25758;SDS011;13604;52.496;13.456;2023-03-31T12:30:51;9.68;;;2.22;;
25758;SDS011;13604;52.496;13.456;2023-03-31T12:33:23;5.45;;;1.73;;
25758;SDS011;13604;52.496;13.456;2023-03-31T12:36:08;5.45;;;2.00;;
25758;SDS011;13604;52.496;13.456;2023-03-31T12:39:10;7.22;;;2.08;;
25758;SDS011;13604;52.496;13.456;2023-03-31T12:53:13;3.08;;;1.27;;
25758;SDS011;13604;52.496;13.456;2023-03-31T12:55:42;3.72;;;1.23;;
25758;SDS011;13604;52.496;13.456;2023-03-31T13:03:50;4.15;;;1.60;;
25758;SDS011;13604;52.496;13.456;2023-03-31T13:08:52;4.95;;;2.10;;
25758;SDS011;13604;52.496;13.456;2023-03-31T13:11:33;10.15;;;2.80;;
25758;SDS011;13604;52.496;13.456;2023-03-31T13:17:10;7.70;;;3.25;;
25758;SDS011;13604;52.496;13.456;2023-03-31T13:19:46;8.05;;;4.00;;
25758;SDS011;13604;52.496;13.456;2023-03-31T13:22:26;10.82;;;4.47;;
25758;SDS011;13604;52.496;13.456;2023-03-31T13:27:50;12.20;;;5.40;;
25758;SDS011;13604;52.496;13.456;2023-03-31T13:33:02;10.75;;;5.88;;
25758;SDS011;13604;52.496;13.456;2023-03-31T13:35:33;12.48;;;5.70;;
25758;SDS011;13604;52.496;13.456;2023-03-31T13:40:53;8.02;;;5.50;;
25758;SDS011;13604;52.496;13.456;2023-03-31T13:49:37;9.07;;;5.15;;
25758;SDS011;13604;52.496;13.456;2023-03-31T13:52:15;8.95;;;4.30;;
25758;SDS011;13604;52.496;13.456;2023-03-31T13:54:53;7.57;;;4.45;;
25758;SDS011;13604;52.496;13.456;2023-03-31T14:08:59;8.77;;;5.25;;
25758;SDS011;13604;52.496;13.456;2023-03-31T14:11:30;9.43;;;4.18;;
25758;SDS011;13604;52.496;13.456;2023-03-31T14:14:00;6.25;;;3.75;;
25758;SDS011;13604;52.496;13.456;2023-03-31T14:16:27;8.10;;;4.28;;
25758;SDS011;13604;52.496;13.456;2023-03-31T14:18:59;9.00;;;4.68;;
25758;SDS011;13604;52.496;13.456;2023-03-31T14:21:40;10.18;;;3.20;;
25758;SDS011;13604;52.496;13.456;2023-03-31T14:24:24;5.10;;;3.20;;
25758;SDS011;13604;52.496;13.456;2023-03-31T14:29:49;3.72;;;2.30;;
25758;SDS011;13604;52.496;13.456;2023-03-31T14:32:42;8.23;;;2.85;;
25758;SDS011;13604;52.496;13.456;2023-03-31T14:35:33;6.93;;;2.50;;
25758;SDS011;13604;52.496;13.456;2023-03-31T14:38:04;5.50;;;1.98;;
25758;SDS011;13604;52.496;13.456;2023-03-31T14:40:41;3.92;;;2.20;;
25758;SDS011;13604;52.496;13.456;2023-03-31T14:43:18;2.42;;;2.03;;
25758;SDS011;13604;52.496;13.456;2023-03-31T14:45:46;3.30;;;2.10;;
25758;SDS011;13604;52.496;13.456;2023-03-31T14:48:14;3.00;;;1.85;;
25758;SDS011;13604;52.496;13.456;2023-03-31T14:50:43;3.70;;;1.80;;
25758;SDS011;13604;52.496;13.456;2023-03-31T14:53:18;4.50;;;2.30;;
25758;SDS011;13604;52.496;13.456;2023-03-31T14:55:47;5.15;;;2.28;;
25758;SDS011;13604;52.496;13.456;2023-03-31T14:58:13;7.32;;;3.13;;
25758;SDS011;13604;52.496;13.456;2023-03-31T15:00:52;5.20;;;2.45;;
25758;SDS011;13604;52.496;13.456;2023-03-31T15:03:18;5.85;;;2.70;;
25758;SDS011;13604;52.496;13.456;2023-03-31T15:05:44;3.88;;;2.20;;
25758;SDS011;13604;52.496;13.456;2023-03-31T15:08:11;5.32;;;2.80;;
25758;SDS011;13604;52.496;13.456;2023-03-31T15:10:42;6.35;;;2.95;;
25758;SDS011;13604;52.496;13.456;2023-03-31T15:19:29;6.60;;;2.75;;
25758;SDS011;13604;52.496;13.456;2023-03-31T15:21:58;8.85;;;2.72;;
25758;SDS011;13604;52.496;13.456;2023-03-31T15:24:41;8.05;;;2.42;;
25758;SDS011;13604;52.496;13.456;2023-03-31T15:27:14;4.70;;;2.28;;
25758;SDS011;13604;52.496;13.456;2023-03-31T15:29:49;4.38;;;2.80;;
25758;SDS011;13604;52.496;13.456;2023-03-31T15:32:20;5.13;;;2.20;;
25758;SDS011;13604;52.496;13.456;2023-03-31T15:34:49;4.07;;;2.70;;
25758;SDS011;13604;52.496;13.456;2023-03-31T15:37:15;3.65;;;2.30;;
25758;SDS011;13604;52.496;13.456;2023-03-31T15:39:45;7.72;;;2.60;;
25758;SDS011;13604;52.496;13.456;2023-03-31T15:42:12;4.97;;;3.17;;
25758;SDS011;13604;52.496;13.456;2023-03-31T15:47:19;5.22;;;2.90;;
25758;SDS011;13604;52.496;13.456;2023-03-31T15:49:53;8.27;;;3.05;;
25758;SDS011;13604;52.496;13.456;2023-03-31T15:54:58;4.75;;;3.08;;
25758;SDS011;13604;52.496;13.456;2023-03-31T15:57:32;6.50;;;2.30;;
25758;SDS011;13604;52.496;13.456;2023-03-31T16:02:25;4.20;;;2.33;;
25758;SDS011;13604;52.496;13.456;2023-03-31T16:05:01;4.18;;;2.53;;
25758;SDS011;13604;52.496;13.456;2023-03-31T16:07:34;3.85;;;2.70;;
25758;SDS011;13604;52.496;13.456;2023-03-31T16:15:32;5.57;;;2.90;;
25758;SDS011;13604;52.496;13.456;2023-03-31T16:18:12;7.20;;;2.80;;
25758;SDS011;13604;52.496;13.456;2023-03-31T16:20:42;6.90;;;2.50;;
25758;SDS011;13604;52.496;13.456;2023-03-31T16:25:43;4.57;;;2.10;;
25758;SDS011;13604;52.496;13.456;2023-03-31T16:28:13;4.28;;;2.78;;
25758;SDS011;13604;52.496;13.456;2023-03-31T16:30:42;3.10;;;2.40;;
25758;SDS011;13604;52.496;13.456;2023-03-31T16:33:12;5.88;;;2.38;;
25758;SDS011;13604;52.496;13.456;2023-03-31T16:35:42;8.80;;;2.85;;
25758;SDS011;13604;52.496;13.456;2023-03-31T16:38:10;4.97;;;2.25;;
25758;SDS011;13604;52.496;13.456;2023-03-31T16:40:37;3.33;;;2.15;;
25758;SDS011;13604;52.496;13.456;2023-03-31T16:43:09;4.85;;;2.95;;
25758;SDS011;13604;52.496;13.456;2023-03-31T16:45:40;5.80;;;3.50;;
25758;SDS011;13604;52.496;13.456;2023-03-31T16:48:08;6.88;;;2.90;;
25758;SDS011;13604;52.496;13.456;2023-03-31T16:50:36;7.60;;;3.42;;
25758;SDS011;13604;52.496;13.456;2023-03-31T16:53:02;7.20;;;3.70;;
25758;SDS011;13604;52.496;13.456;2023-03-31T16:55:28;7.10;;;3.63;;
25758;SDS011;13604;52.496;13.456;2023-03-31T16:57:57;8.43;;;3.92;;
25758;SDS011;13604;52.496;13.456;2023-03-31T17:00:26;8.60;;;3.90;;
25758;SDS011;13604;52.496;13.456;2023-03-31T17:02:52;7.00;;;3.40;;
25758;SDS011;13604;52.496;13.456;2023-03-31T17:05:17;5.00;;;2.78;;
25758;SDS011;13604;52.496;13.456;2023-03-31T17:07:44;9.90;;;3.05;;
25758;SDS011;13604;52.496;13.456;2023-03-31T17:10:10;7.03;;;3.03;;
25758;SDS011;13604;52.496;13.456;2023-03-31T17:12:36;8.15;;;2.97;;